TimePST,TemperatureF,Dew PointF,Humidity,Sea Level PressureIn,VisibilityMPH,Wind Direction,Wind SpeedMPH,Gust SpeedMPH,PrecipitationIn,Events,Conditions,WindDirDegrees,DateUTC
12:53 AM,37.9,16.0,41,29.65,10.0,SSE,24.2,31.1,N/A,,Clear,150,2012-12-12 08:53:00
1:53 AM,37.0,16.0,42,29.62,10.0,SE,25.3,35.7,N/A,,Clear,140,2012-12-12 09:53:00
2:53 AM,37.0,17.1,44,29.62,10.0,SSE,19.6,28.8,N/A,,Clear,160,2012-12-12 10:53:00
3:53 AM,35.6,17.6,48,29.74,10.0,SSE,15.0,-,N/A,,Clear,160,2012-12-12 11:53:00
4:53 AM,34.0,17.1,50,29.70,10.0,SSE,13.8,26.5,N/A,,Clear,150,2012-12-12 12:53:00
5:53 AM,34.0,16.0,48,29.71,10.0,SSE,12.7,19.6,N/A,,Clear,160,2012-12-12 13:53:00
6:53 AM,33.1,17.1,52,29.73,10.0,SSE,19.6,26.5,N/A,,Clear,150,2012-12-12 14:53:00
7:53 AM,34.0,17.1,50,29.73,10.0,SSE,16.1,-,N/A,,Clear,150,2012-12-12 15:53:00
8:53 AM,37.0,17.1,44,29.74,10.0,SE,19.6,28.8,N/A,,Clear,140,2012-12-12 16:53:00
9:53 AM,41.0,18.0,40,29.73,10.0,SSE,25.3,31.1,N/A,,Clear,150,2012-12-12 17:53:00
10:53 AM,42.1,17.1,37,29.70,10.0,SE,21.9,34.5,N/A,,Partly Cloudy,140,2012-12-12 18:53:00
11:53 AM,42.1,17.1,37,29.68,10.0,SE,20.7,-,N/A,,Clear,140,2012-12-12 19:53:00
12:53 PM,41.0,16.0,36,29.67,10.0,SSE,18.4,24.2,N/A,,Clear,150,2012-12-12 20:53:00
1:53 PM,41.0,16.0,36,29.68,10.0,SSW,9.2,-,N/A,,Clear,200,2012-12-12 21:53:00
2:53 PM,39.9,16.0,38,29.67,10.0,SSE,15.0,-,N/A,,Clear,150,2012-12-12 22:53:00
3:53 PM,39.0,16.0,39,29.68,10.0,SE,18.4,23.0,N/A,,Clear,140,2012-12-12 23:53:00
4:53 PM,39.0,15.1,38,29.68,10.0,SE,19.6,28.8,N/A,,Partly Cloudy,130,2012-12-13 00:53:00
5:53 PM,37.9,15.1,39,29.70,10.0,SE,21.9,29.9,N/A,,Clear,140,2012-12-13 01:53:00
6:53 PM,37.9,16.0,41,29.70,10.0,SE,20.7,39.1,N/A,,Partly Cloudy,140,2012-12-13 02:53:00
7:53 PM,37.0,16.0,42,29.70,10.0,SE,26.5,34.5,N/A,,Clear,140,2012-12-13 03:53:00
8:53 PM,35.1,16.0,46,29.71,10.0,SE,17.3,27.6,N/A,,Clear,130,2012-12-13 04:53:00
9:53 PM,36.0,16.0,44,29.69,10.0,SE,25.3,33.4,N/A,,Clear,140,2012-12-13 05:53:00
10:53 PM,36.0,15.1,43,29.71,10.0,SSE,17.3,27.6,N/A,,Mostly Cloudy,150,2012-12-13 06:53:00
11:53 PM,36.0,15.1,43,29.72,10.0,SSE,15.0,24.2,N/A,,Overcast,150,2012-12-13 07:53:00